Time;durP1;ratioP1;P1;durP2;ratioP2;P2;SDS_P1;SDS_P2;PMS_P1;PMS_P2;Temp;Humidity;BMP_temperature;BMP_pressure;BME280_temperature;BME280_humidity;BME280_pressure;Samples;Min_cycle;Max_cycle;Signal;HPM_P1;HPM_P2
2022/02/04 00:21:40;;;;;;;4.12;3.37;;;;;;;7.65;51.22;99703.27;1735262;82;21053;-63
2022/02/04 00:23:27;;;;;;;5.20;4.05;;;;;;;7.63;51.23;99697.30;1716373;81;21361;-60
2022/02/04 00:26:00;;;;;;;4.80;3.77;;;;;;;7.62;51.23;99699.58;1727349;81;21046;-62
2022/02/04 00:33:48;;;;;;;4.35;3.58;;;;;;;7.60;51.22;99688.33;1725039;81;21093;-61
2022/02/04 00:36:22;;;;;;;4.53;3.47;;;;;;;7.59;51.21;99689.33;1725804;81;21202;-63
2022/02/04 00:38:49;;;;;;;4.30;3.25;;;;;;;7.57;51.21;99686.00;1679288;84;21589;-62
2022/02/04 00:41:16;;;;;;;4.30;3.70;;;;;;;7.57;51.21;99687.33;1682706;83;21014;-64
2022/02/04 00:43:42;;;;;;;4.20;3.37;;;;;;;7.56;51.20;99680.36;1718726;82;22176;-64
2022/02/04 00:46:21;;;;;;;4.00;3.22;;;;;;;7.55;51.20;99678.72;1703821;83;21514;-65
2022/02/04 00:49:03;;;;;;;4.70;4.05;;;;;;;7.55;51.19;99688.44;1723487;82;21842;-64
2022/02/04 00:51:30;;;;;;;4.12;3.72;;;;;;;7.54;51.17;99688.94;1727068;81;21565;-67
2022/02/04 01:26:13;;;;;;;4.08;3.50;;;;;;;7.43;51.18;99698.39;1726464;82;21560;-65
2022/02/04 01:28:43;;;;;;;4.85;3.12;;;;;;;7.42;51.18;99700.22;1737184;82;21125;-64
2022/02/04 01:31:12;;;;;;;4.70;3.83;;;;;;;7.41;51.17;99698.53;1723334;80;21152;-65
2022/02/04 01:33:38;;;;;;;4.35;3.52;;;;;;;7.41;51.16;99690.61;1713960;82;21518;-64
2022/02/04 01:36:04;;;;;;;4.47;3.80;;;;;;;7.41;51.17;99693.25;1733374;82;21065;-66
2022/02/04 01:38:31;;;;;;;4.20;3.45;;;;;;;7.41;51.16;99696.39;1733853;82;21058;-65
2022/02/04 01:40:58;;;;;;;3.95;3.55;;;;;;;7.41;51.13;99692.42;1732309;82;21513;-64
2022/02/04 01:43:25;;;;;;;4.50;3.90;;;;;;;7.41;51.11;99694.58;1728802;81;21548;-64
2022/02/04 01:45:58;;;;;;;4.62;3.58;;;;;;;7.41;51.13;99693.75;1701087;84;21566;-64
2022/02/04 01:48:24;;;;;;;4.40;3.80;;;;;;;7.40;51.08;99697.39;1714000;83;21074;-64
2022/02/04 01:50:51;;;;;;;4.58;4.00;;;;;;;7.41;51.08;99700.36;1708437;82;21124;-64
2022/02/04 01:53:20;;;;;;;4.20;3.50;;;;;;;7.41;51.05;99703.00;1685193;84;21092;-65
2022/02/04 01:55:49;;;;;;;4.42;3.98;;;;;;;7.40;51.05;99704.82;1706476;83;21014;-67
2022/02/04 01:58:15;;;;;;;4.65;4.03;;;;;;;7.41;51.04;99704.32;1686530;84;21086;-65
2022/02/04 02:00:41;;;;;;;3.92;3.42;;;;;;;7.41;51.03;99701.68;1734592;82;21058;-64
2022/02/04 02:03:08;;;;;;;4.40;3.95;;;;;;;7.40;51.00;99698.71;1721304;82;21507;-66
2022/02/04 02:05:35;;;;;;;4.45;3.65;;;;;;;7.41;51.01;99697.72;1737134;81;22303;-64
2022/02/04 02:08:12;;;;;;;4.53;3.83;;;;;;;7.40;50.99;99700.03;1741678;80;20999;-65
2022/02/04 02:10:39;;;;;;;4.80;3.42;;;;;;;7.41;50.97;99697.72;1726714;82;21065;-65
2022/02/04 02:16:11;;;;;;;3.80;3.10;;;;;;;7.41;50.96;99697.22;1717697;82;21017;-65
2022/02/04 02:51:14;;;;;;;5.28;4.05;;;;;;;7.31;50.92;99729.98;1713745;82;21030;-65
2022/02/04 02:56:41;;;;;;;4.28;3.58;;;;;;;7.28;50.90;99729.30;1674593;84;21558;-64
2022/02/04 02:58:55;;;;;;;4.15;3.42;;;;;;;7.28;50.90;99727.13;1688503;83;21145;-65
2022/02/04 03:01:13;;;;;;;5.08;3.92;;;;;;;7.28;50.88;99724.48;1680733;84;21150;-64
2022/02/04 03:03:43;;;;;;;4.40;3.70;;;;;;;7.28;50.89;99731.09;1682392;84;21044;-65
2022/02/04 03:06:09;;;;;;;4.50;3.72;;;;;;;7.28;50.88;99731.95;1674431;84;21022;-65
2022/02/04 03:08:36;;;;;;;4.62;3.70;;;;;;;7.28;50.85;99731.95;1669754;84;21520;-64
2022/02/04 03:11:03;;;;;;;5.17;4.05;;;;;;;7.27;50.83;99730.27;1698866;84;21069;-64
2022/02/04 03:13:29;;;;;;;3.80;3.35;;;;;;;7.27;50.82;99731.59;1694636;84;21090;-64
2022/02/04 03:16:02;;;;;;;4.55;3.62;;;;;;;7.27;50.81;99736.88;1691379;84;21050;-65
2022/02/04 03:18:30;;;;;;;4.45;3.55;;;;;;;7.28;50.78;99737.70;1677044;84;21031;-65
2022/02/04 03:21:01;;;;;;;4.62;3.65;;;;;;;7.27;50.76;99732.91;1676266;84;21054;-66
2022/02/04 03:23:25;;;;;;;5.90;4.05;;;;;;;7.27;50.76;99742.16;1677924;84;21159;-64
2022/02/04 03:25:58;;;;;;;4.60;3.98;;;;;;;7.28;50.74;99740.34;1676839;84;21062;-65
2022/02/04 03:28:26;;;;;;;4.58;3.58;;;;;;;7.27;50.71;99734.73;1681064;84;21122;-64
2022/02/04 03:30:52;;;;;;;4.10;3.65;;;;;;;7.27;50.71;99734.73;1681572;83;21055;-65
2022/02/04 03:33:21;;;;;;;4.97;3.77;;;;;;;7.27;50.69;99730.77;1685487;84;21053;-64
2022/02/04 03:35:47;;;;;;;5.33;3.87;;;;;;;7.26;50.68;99734.37;1674373;84;21228;-64
2022/02/04 03:38:13;;;;;;;5.33;3.98;;;;;;;7.26;50.67;99727.77;1689413;84;21019;-64
2022/02/04 03:40:39;;;;;;;4.87;3.98;;;;;;;7.25;50.68;99732.22;1682121;84;21039;-65
2022/02/04 03:43:06;;;;;;;4.97;4.42;;;;;;;7.24;50.65;99725.77;1679103;84;21083;-65
2022/02/04 03:45:32;;;;;;;4.95;4.20;;;;;;;7.24;50.66;99723.12;1678729;84;21066;-65
2022/02/04 03:47:58;;;;;;;4.65;3.72;;;;;;;7.24;50.65;99727.08;1719701;82;21162;-65
2022/02/04 03:50:24;;;;;;;4.28;3.83;;;;;;;7.23;50.64;99730.22;1691916;83;21568;-65
2022/02/04 03:52:51;;;;;;;5.85;4.17;;;;;;;7.23;50.63;99732.86;1737117;82;21547;-64
2022/02/04 03:55:17;;;;;;;5.05;3.92;;;;;;;7.23;50.60;99731.55;1742281;82;21683;-65
2022/02/04 04:00:11;;;;;;;5.37;4.20;;;;;;;7.25;50.59;99728.27;1858491;76;28030;-63
2022/02/04 04:02:44;;;;;;;4.87;3.80;;;;;;;7.21;50.56;99736.14;1827148;77;21100;-64
2022/02/04 04:05:12;;;;;;;4.33;3.77;;;;;;;7.20;50.56;99734.47;1824880;77;21117;-63
2022/02/04 04:07:44;;;;;;;5.40;4.50;;;;;;;7.20;50.56;99735.78;1837211;77;20953;-64
2022/02/04 04:10:10;;;;;;;5.28;3.98;;;;;;;7.18;50.57;99735.10;1858799;77;21508;-64
2022/02/04 04:12:37;;;;;;;5.03;4.10;;;;;;;7.19;50.54;99746.03;1831364;77;20981;-64
2022/02/04 04:15:07;;;;;;;5.05;4.53;;;;;;;7.18;50.53;99748.81;1837507;76;21041;-65
2022/02/04 04:17:39;;;;;;;5.05;4.40;;;;;;;7.16;50.53;99743.66;1772622;80;21125;-63
2022/02/04 04:20:01;;;;;;;4.90;3.90;;;;;;;7.16;50.53;99748.13;1787228;78;20961;-66
2022/02/04 04:22:27;;;;;;;5.85;4.75;;;;;;;7.16;50.53;99744.98;1789321;80;20966;-64
2022/02/04 04:24:54;;;;;;;5.72;4.72;;;;;;;7.15;50.53;99750.44;1797427;78;21073;-64
2022/02/04 04:27:20;;;;;;;5.42;4.20;;;;;;;7.15;50.54;99754.41;1808917;78;21037;-64
2022/02/04 04:29:47;;;;;;;4.95;4.25;;;;;;;7.14;50.50;99754.87;1801485;78;21088;-67
2022/02/04 04:32:13;;;;;;;5.70;4.20;;;;;;;7.13;50.51;99753.22;1802001;78;20997;-64
2022/02/04 04:34:39;;;;;;;5.20;4.17;;;;;;;7.13;50.50;99756.33;1795205;79;21088;-64
2022/02/04 04:37:06;;;;;;;5.10;4.28;;;;;;;7.12;50.50;99749.40;1802978;78;21084;-64
2022/02/04 04:39:42;;;;;;;5.08;4.55;;;;;;;7.12;50.49;99758.64;1813689;78;21029;-64
2022/02/04 04:42:14;;;;;;;5.22;3.83;;;;;;;7.11;50.49;99756.50;1812480;78;21832;-66
2022/02/04 04:45:34;;;;;;;5.40;4.10;;;;;;;7.11;50.50;99755.18;1820216;78;21501;-64
2022/02/04 05:31:06;;;;;;;6.58;5.05;;;;;;;6.88;50.54;99785.90;1664460;84;21133;-65
2022/02/04 05:33:32;;;;;;;5.17;4.65;;;;;;;6.87;50.55;99790.82;1742672;80;21018;-66
2022/02/04 05:36:00;;;;;;;5.08;4.50;;;;;;;6.86;50.56;99787.85;1807107;78;21129;-66
2022/02/04 05:38:28;;;;;;;6.37;5.37;;;;;;;6.86;50.55;99786.53;1799442;78;21053;-65
2022/02/04 05:40:54;;;;;;;5.75;4.55;;;;;;;6.87;50.55;99787.36;1777323;80;21023;-65
2022/02/04 05:43:25;;;;;;;5.53;4.78;;;;;;;6.87;50.52;99793.46;1789125;80;21033;-64
2022/02/04 05:46:06;;;;;;;5.00;4.42;;;;;;;6.87;50.52;99786.03;1784937;79;21087;-65
2022/02/04 05:48:32;;;;;;;5.55;4.28;;;;;;;6.86;50.52;99789.17;1793371;78;21155;-66
2022/02/04 05:53:46;;;;;;;5.72;4.78;;;;;;;6.87;50.46;99795.28;1775721;80;20986;-67
2022/02/04 05:56:14;;;;;;;6.05;5.20;;;;;;;6.87;50.46;99792.14;1766350;80;20998;-66
2022/02/04 06:03:45;;;;;;;5.60;4.45;;;;;;;6.90;50.41;99793.69;1747766;81;21045;-65
2022/02/04 06:06:36;;;;;;;6.05;4.80;;;;;;;6.90;50.40;99795.01;1737911;81;21521;-64
2022/02/04 06:09:19;;;;;;;5.28;4.50;;;;;;;6.91;50.36;99793.19;1762827;80;21537;-67
2022/02/04 06:11:29;;;;;;;5.58;4.78;;;;;;;6.91;50.36;99797.16;1773043;80;20993;-65
2022/02/04 06:24:38;;;;;;;5.12;4.62;;;;;;;6.95;50.25;99796.70;1702004;81;21498;-66
2022/02/04 06:27:05;;;;;;;5.60;4.87;;;;;;;6.97;50.23;99797.89;1716761;81;21863;-65
2022/02/04 06:29:32;;;;;;;5.92;4.83;;;;;;;6.97;50.23;99801.86;1744080;81;21597;-65
2022/02/04 06:31:59;;;;;;;5.85;4.72;;;;;;;6.98;50.20;99801.72;1766992;81;21084;-66
2022/02/04 06:34:25;;;;;;;6.25;4.97;;;;;;;7.00;50.17;99806.37;1739310;81;21106;-64
2022/02/04 06:36:52;;;;;;;5.40;4.85;;;;;;;7.01;50.13;99804.55;1752602;81;21529;-67
2022/02/04 06:39:18;;;;;;;6.28;4.97;;;;;;;7.03;50.11;99803.92;1768568;81;21134;-66
2022/02/04 06:41:45;;;;;;;6.25;5.35;;;;;;;7.05;50.10;99802.81;1750833;81;21093;-67
2022/02/04 06:44:11;;;;;;;5.55;4.70;;;;;;;7.06;50.05;99804.47;1741111;81;21091;-66
2022/02/04 06:46:39;;;;;;;5.25;4.53;;;;;;;7.08;50.04;99807.80;1739597;81;21109;-65
2022/02/04 06:49:05;;;;;;;5.90;5.30;;;;;;;7.10;49.99;99805.02;1747202;81;21061;-65
2022/02/04 06:51:32;;;;;;;5.10;4.60;;;;;;;7.11;49.97;99808.02;1742960;81;21374;-65
2022/02/04 06:53:58;;;;;;;6.08;5.05;;;;;;;7.14;49.94;99805.56;1741941;81;21525;-66
2022/02/04 06:56:24;;;;;;;5.72;5.10;;;;;;;7.16;49.90;99811.03;1753676;81;21528;-66
2022/02/04 06:58:51;;;;;;;5.92;4.97;;;;;;;7.17;49.88;99811.39;1755290;79;21053;-65
2022/02/04 07:01:17;;;;;;;5.60;4.70;;;;;;;7.19;49.84;99818.69;1765607;81;21107;-66
2022/02/04 07:03:44;;;;;;;5.33;4.70;;;;;;;7.22;49.82;99823.70;1753640;81;21172;-65
2022/02/04 07:06:15;;;;;;;6.20;4.92;;;;;;;7.23;49.79;99820.06;1754833;80;21423;-65
2022/02/04 07:08:47;;;;;;;6.80;5.40;;;;;;;7.26;49.76;99822.89;1753634;81;21077;-65
2022/02/04 07:16:27;;;;;;;6.28;5.22;;;;;;;7.32;49.70;99824.98;1706009;81;21141;-66
2022/02/04 07:21:34;;;;;;;5.97;5.05;;;;;;;7.35;50.04;99822.53;1751796;81;21567;-66
2022/02/04 07:24:00;;;;;;;6.42;5.37;;;;;;;7.36;50.08;99827.67;1755942;81;21081;-66
2022/02/04 07:26:30;;;;;;;6.58;5.37;;;;;;;7.38;50.08;99820.43;1758692;81;21029;-66
2022/02/04 07:28:55;;;;;;;6.70;5.40;;;;;;;7.40;50.05;99821.61;1767032;81;21199;-66
2022/02/04 07:31:21;;;;;;;7.30;5.42;;;;;;;7.41;50.03;99821.44;1760930;80;21048;-68
2022/02/04 07:33:53;;;;;;;5.83;4.85;;;;;;;7.44;50.01;99822.98;1765655;81;21119;-66
2022/02/04 07:41:37;;;;;;;6.35;5.10;;;;;;;7.49;49.87;99807.50;1745692;81;21121;-66
2022/02/04 07:44:04;;;;;;;6.55;4.90;;;;;;;7.51;49.82;99803.39;1749964;79;21069;-68
2022/02/04 07:46:30;;;;;;;7.08;5.40;;;;;;;7.53;49.78;99810.19;1753556;81;21032;-67
2022/02/04 07:48:56;;;;;;;6.65;5.55;;;;;;;7.56;49.75;99806.44;1754088;81;21060;-67
2022/02/04 07:51:23;;;;;;;6.15;5.12;;;;;;;7.58;49.68;99809.77;1744094;81;21016;-66
2022/02/04 07:53:50;;;;;;;6.67;5.37;;;;;;;7.60;49.65;99805.16;1764700;80;21212;-66
2022/02/04 07:56:20;;;;;;;6.70;5.58;;;;;;;7.63;49.61;99800.88;1752289;81;21061;-65
2022/02/04 07:58:53;;;;;;;7.00;6.08;;;;;;;7.65;49.59;99811.67;1754569;79;21117;-65
2022/02/04 08:01:12;;;;;;;5.83;5.20;;;;;;;7.67;49.55;99803.09;1770992;79;21033;-65
2022/02/04 08:03:43;;;;;;;7.28;6.10;;;;;;;7.71;49.52;99806.28;1771870;79;21036;-68
2022/02/04 08:06:12;;;;;;;7.60;5.80;;;;;;;7.75;49.45;99809.47;1785270;78;21146;-65
2022/02/04 08:11:16;;;;;;;6.55;5.78;;;;;;;7.82;49.36;99807.88;1770301;79;21037;-66
2022/02/04 08:14:01;;;;;;;8.45;5.87;;;;;;;7.86;49.32;99806.59;1792673;79;21498;-66
2022/02/04 08:16:34;;;;;;;6.83;5.85;;;;;;;7.91;49.26;99804.34;1794343;78;21014;-66
2022/02/04 08:21:24;;;;;;;6.83;5.80;;;;;;;8.02;49.17;99800.66;1794633;78;21021;-65
2022/02/04 08:26:49;;;;;;;7.12;5.58;;;;;;;8.12;49.06;99797.45;1775814;80;21002;-68
2022/02/04 08:29:12;;;;;;;6.05;5.37;;;;;;;8.18;48.99;99797.34;1789610;78;21006;-66
2022/02/04 08:32:19;;;;;;;6.78;5.65;;;;;;;8.23;48.97;99791.11;1795283;78;21092;-68
2022/02/04 08:50:40;;;;;;;12.03;8.33;;;;;;;8.97;61.73;99730.23;1782942;80;21041;-67
2022/02/04 08:54:46;;;;;;;14.33;8.78;;;;;;;9.29;62.94;99728.73;1771874;80;21128;-67
2022/02/04 08:57:23;;;;;;;12.55;7.65;;;;;;;9.45;62.94;99722.15;1777775;78;21077;-66
2022/02/04 09:00:25;;;;;;;12.25;8.20;;;;;;;9.61;63.07;99725.84;1769250;79;21658;-65
2022/02/04 09:02:19;;;;;;;11.15;7.58;;;;;;;9.77;63.06;99731.19;1742807;80;21030;-66
2022/02/04 09:04:44;;;;;;;12.28;8.25;;;;;;;9.94;63.21;99728.55;1782852;79;21060;-66
2022/02/04 09:07:11;;;;;;;9.25;7.97;;;;;;;10.10;63.19;99731.70;1776985;80;21080;-66
2022/02/04 09:09:52;;;;;;;12.60;7.45;;;;;;;10.27;63.56;99731.22;1771398;80;21145;-66
2022/02/04 09:16:52;;;;;;;11.50;7.10;;;;;;;10.42;63.65;99730.91;1767135;80;21036;-67
2022/02/04 09:20:29;;;;;;;9.58;7.42;;;;;;;10.92;63.66;99725.83;1781758;79;21103;-65
2022/02/04 09:22:50;;;;;;;12.82;8.35;;;;;;;11.10;63.76;99726.93;1778529;80;21809;-65
2022/02/04 09:25:17;;;;;;;10.68;7.08;;;;;;;11.26;63.20;99731.86;1762453;80;21554;-66
2022/02/04 09:27:44;;;;;;;10.63;6.95;;;;;;;11.41;63.11;99724.80;1770729;79;21065;-66
2022/02/04 09:30:13;;;;;;;10.45;7.37;;;;;;;11.57;63.31;99726.06;1772272;80;21021;-65
2022/02/04 09:32:40;;;;;;;9.40;7.17;;;;;;;11.73;63.03;99725.64;1765433;79;21037;-66
2022/02/04 09:35:16;;;;;;;8.18;6.85;;;;;;;11.87;64.01;99720.88;1772871;79;21069;-66
2022/02/04 09:37:43;;;;;;;8.98;7.85;;;;;;;12.03;64.43;99715.14;1763880;80;21057;-67
2022/02/04 09:40:11;;;;;;;10.03;7.10;;;;;;;12.16;64.24;99714.86;1769151;80;21511;-68
2022/02/04 09:42:39;;;;;;;9.75;7.28;;;;;;;12.32;63.65;99713.07;1769379;79;21033;-67
2022/02/04 09:45:07;;;;;;;8.15;6.95;;;;;;;12.47;63.27;99717.11;1770509;79;21025;-67
2022/02/04 09:47:36;;;;;;;8.55;6.37;;;;;;;12.62;62.48;99715.80;1768225;80;21122;-65
2022/02/04 09:50:14;;;;;;;11.53;7.40;;;;;;;12.75;63.04;99712.83;1771291;79;21089;-67
2022/02/04 10:07:13;;;;;;;7.75;6.00;;;;;;;13.67;61.79;99705.38;1770832;79;21600;-66
2022/02/04 10:09:37;;;;;;;8.40;6.90;;;;;;;13.83;61.38;99701.15;1778200;79;21053;-65
2022/02/04 10:17:11;;;;;;;9.25;6.58;;;;;;;14.31;60.25;99699.19;1776412;80;21112;-66
2022/02/04 10:22:06;;;;;;;7.70;6.35;;;;;;;14.60;59.43;99697.38;1769091;79;21112;-65
2022/02/04 10:24:33;;;;;;;6.90;5.72;;;;;;;14.73;59.04;99690.27;1778507;79;21033;-66
2022/02/04 10:27:11;;;;;;;7.90;6.83;;;;;;;14.87;58.67;99689.00;1775333;80;21557;-67
2022/02/04 10:29:38;;;;;;;9.55;6.10;;;;;;;15.01;58.18;99697.44;1772030;80;21553;-67
2022/02/04 10:32:05;;;;;;;7.40;5.78;;;;;;;15.14;57.78;99692.64;1778290;79;21069;-67
2022/02/04 10:34:35;;;;;;;5.92;5.37;;;;;;;15.27;57.51;99691.88;1761925;80;21042;-65
2022/02/04 10:37:06;;;;;;;6.85;5.87;;;;;;;15.39;57.08;99688.93;1767778;80;21349;-65
2022/02/04 10:39:50;;;;;;;7.45;5.53;;;;;;;15.49;56.74;99689.39;1777524;80;21328;-64
2022/02/04 10:42:32;;;;;;;7.72;5.58;;;;;;;15.61;56.38;99686.13;1767237;80;21064;-66
2022/02/04 10:56:28;;;;;;;11.30;5.72;;;;;;;16.18;54.64;99678.08;1767916;80;21014;-67
2022/02/04 11:04:37;;;;;;;6.47;5.35;;;;;;;16.54;54.16;99659.40;1769227;80;21087;-65
2022/02/04 11:06:56;;;;;;;7.78;5.28;;;;;;;16.66;54.01;99665.75;1752330;80;21239;-63
2022/02/04 11:09:28;;;;;;;6.35;5.37;;;;;;;16.78;53.74;99659.75;1766637;80;21054;-67
2022/02/04 11:12:02;;;;;;;5.87;4.80;;;;;;;16.90;53.46;99654.91;1771626;80;21530;-65
2022/02/04 11:36:24;;;;;;;5.70;5.03;;;;;;;18.02;50.86;99695.34;1797870;78;21399;-67
2022/02/04 11:55:01;;;;;;;6.80;5.10;;;;;;;18.57;49.22;99631.47;1802773;78;21037;-65
2022/02/04 11:57:30;;;;;;;5.12;4.53;;;;;;;18.59;48.98;99640.95;1798609;78;21039;-65
2022/02/04 12:00:18;;;;;;;5.47;4.30;;;;;;;18.58;48.73;99635.80;1779734;78;21155;-67
2022/02/04 12:02:46;;;;;;;4.35;3.95;;;;;;;18.58;48.57;99635.80;1757538;80;21035;-65
2022/02/04 12:05:24;;;;;;;5.00;4.50;;;;;;;18.57;48.62;99634.16;1805342;79;21089;-67
2022/02/04 12:08:05;;;;;;;5.42;4.75;;;;;;;18.56;48.72;99630.66;1777276;79;21006;-65
2022/02/04 12:10:34;;;;;;;6.08;5.47;;;;;;;18.57;48.70;99627.44;1781211;79;21644;-65
2022/02/04 12:13:09;;;;;;;5.92;5.33;;;;;;;18.58;48.56;99628.56;1754707;79;21037;-64
2022/02/04 12:15:43;;;;;;;5.92;5.33;;;;;;;18.61;48.62;99630.79;1776493;79;21489;-64
2022/02/04 12:18:17;;;;;;;6.37;4.80;;;;;;;18.66;48.71;99686.11;1762470;79;21588;-65
2022/02/04 12:20:58;;;;;;;6.42;5.83;;;;;;;18.74;49.46;99681.49;1770383;79;21924;-63
2022/02/04 12:23:41;;;;;;;6.55;5.78;;;;;;;18.85;50.00;99687.48;1777324;79;21454;-65
2022/02/04 12:26:19;;;;;;;7.33;5.75;;;;;;;18.95;50.17;99691.84;1776574;79;21749;-65
2022/02/04 12:29:06;;;;;;;8.88;6.20;;;;;;;19.05;50.53;99694.83;1775011;79;21094;-63
2022/02/04 12:31:35;;;;;;;6.72;5.22;;;;;;;19.18;50.82;99690.33;1774717;79;21094;-63
2022/02/04 12:34:11;;;;;;;6.58;5.62;;;;;;;19.30;50.84;99693.11;1777919;79;21072;-64
2022/02/04 12:36:43;;;;;;;6.83;5.53;;;;;;;19.40;50.79;99693.38;1783730;79;21021;-64
2022/02/04 12:39:19;;;;;;;7.90;5.67;;;;;;;19.51;50.51;99690.42;1771786;79;21128;-65
2022/02/04 12:41:53;;;;;;;9.58;4.95;;;;;;;19.61;50.15;99696.11;1766957;79;21004;-65
2022/02/04 12:44:24;;;;;;;;;;;;;;;19.73;49.89;99696.18;1772915;79;21138;-62
2022/02/04 12:46:56;;;;;;;6.45;4.70;;;;;;;19.87;49.65;99700.84;1771460;79;20206;-62
2022/02/04 12:49:26;;;;;;;5.45;3.95;;;;;;;20.17;49.03;99698.11;1784291;79;21097;-62
2022/02/04 12:52:03;;;;;;;4.40;3.90;;;;;;;20.65;48.11;99692.22;1770502;79;21131;-62
2022/02/04 12:54:38;;;;;;;8.75;4.62;;;;;;;21.16;47.13;99689.28;1775320;79;21506;-61
2022/02/04 13:08:18;;;;;;;5.15;3.40;;;;;;;23.31;42.39;99679.27;1775326;79;21480;-65
2022/02/04 13:10:44;;;;;;;5.80;3.45;;;;;;;23.33;41.61;99631.56;1787974;79;21029;-66
2022/02/04 13:13:14;;;;;;;4.62;3.70;;;;;;;23.16;41.29;99629.78;1793664;79;21060;-65
2022/02/04 13:15:42;;;;;;;4.90;4.40;;;;;;;22.99;41.00;99639.03;1774622;79;21563;-64
2022/02/04 13:18:13;;;;;;;8.35;4.53;;;;;;;22.80;40.92;99639.33;1764151;81;21156;-65
2022/02/04 13:20:45;;;;;;;7.53;4.92;;;;;;;22.61;40.78;99645.57;1763950;81;21017;-65
2022/02/04 13:23:18;;;;;;;6.42;4.75;;;;;;;22.41;40.76;99637.15;1781758;80;21037;-65
2022/02/04 13:25:50;;;;;;;6.53;4.05;;;;;;;22.21;40.87;99642.52;1763783;79;21045;-65
2022/02/04 13:28:20;;;;;;;6.87;4.08;;;;;;;22.01;41.04;99640.31;1796321;79;21025;-63
2022/02/04 13:31:03;;;;;;;7.10;4.33;;;;;;;21.85;41.25;99636.55;1789715;79;21127;-65
2022/02/04 13:33:43;;;;;;;6.17;4.35;;;;;;;21.69;41.53;99638.17;1773890;79;21048;-64
2022/02/04 13:50:20;;;;;;;6.72;4.10;;;;;;;20.84;44.10;99638.38;1772386;79;21632;-66
2022/02/04 13:55:42;;;;;;;5.78;4.33;;;;;;;20.64;45.05;99637.44;1779421;80;21775;-63
2022/02/04 14:01:09;;;;;;;10.15;3.72;;;;;;;20.50;45.52;99636.83;1770724;79;21041;-65
2022/02/04 14:03:40;;;;;;;7.70;4.17;;;;;;;20.48;45.76;99636.79;1777503;79;21097;-65
2022/02/04 14:06:14;;;;;;;12.37;4.60;;;;;;;20.47;45.93;99631.08;1769440;79;28617;-66
2022/02/04 14:09:06;;;;;;;9.90;4.47;;;;;;;20.47;46.11;99635.94;1771386;79;22065;-64
2022/02/04 14:11:38;;;;;;;6.75;4.10;;;;;;;20.49;46.22;99639.77;1770445;79;22330;-65
2022/02/04 14:14:10;;;;;;;8.48;4.30;;;;;;;20.51;46.29;99641.70;1776117;79;21076;-63
2022/02/04 14:16:37;;;;;;;8.78;4.17;;;;;;;20.53;46.32;99639.08;1772568;79;21104;-63
2022/02/04 14:19:05;;;;;;;10.78;4.20;;;;;;;20.55;46.37;99636.11;1771218;79;21094;-63
2022/02/04 14:21:33;;;;;;;8.63;4.25;;;;;;;20.55;46.39;99644.21;1767699;79;21080;-64
2022/02/04 14:24:05;;;;;;;5.40;4.10;;;;;;;20.55;46.52;99645.56;1775383;78;21190;-63
2022/02/04 14:26:31;;;;;;;10.15;4.85;;;;;;;20.54;46.64;99659.59;1762733;80;21080;-64
2022/02/04 14:29:18;;;;;;;7.72;4.03;;;;;;;20.52;46.69;99654.95;1769092;79;21048;-64
2022/02/04 15:01:16;;;;;;;7.62;4.58;;;;;;;18.49;44.09;99685.04;1762718;80;20982;-66
2022/02/04 15:03:40;;;;;;;15.15;6.10;;;;;;;18.30;44.31;99693.58;1767979;80;21155;-62
2022/02/04 15:06:20;;;;;;;11.45;5.95;;;;;;;18.15;44.49;99691.73;1769023;80;21064;-64
2022/02/04 15:08:44;;;;;;;11.85;7.25;;;;;;;17.98;44.69;99694.98;1777210;80;20997;-64
2022/02/04 15:11:16;;;;;;;10.18;7.35;;;;;;;17.81;44.89;99700.02;1776022;80;21060;-63
2022/02/04 15:13:39;;;;;;;13.93;7.42;;;;;;;17.65;45.09;99701.84;1762569;80;21170;-64
2022/02/04 15:16:09;;;;;;;18.57;8.10;;;;;;;17.51;45.29;99698.94;1766308;80;21306;-64
2022/02/04 15:18:37;;;;;;;15.15;8.30;;;;;;;17.36;45.53;99701.90;1756515;80;21089;-65
2022/02/04 15:21:08;;;;;;;16.55;9.88;;;;;;;17.23;45.72;99706.80;1771419;80;21485;-65
2022/02/04 15:23:32;;;;;;;13.10;8.33;;;;;;;17.08;45.91;99705.20;1787178;79;21098;-64
2022/02/04 15:25:58;;;;;;;20.05;9.10;;;;;;;16.96;46.13;99708.73;1766809;79;21045;-64
2022/02/04 15:28:50;;;;;;;17.60;9.33;;;;;;;16.83;46.33;99709.09;1771756;79;21146;-66
2022/02/04 15:30:54;;;;;;;17.87;9.23;;;;;;;16.72;46.56;99700.30;1761128;79;21136;-66
2022/02/04 15:33:21;;;;;;;18.45;9.88;;;;;;;16.61;46.71;99701.78;1789805;79;21551;-65
2022/02/04 15:35:48;;;;;;;18.32;9.45;;;;;;;16.49;46.86;99708.27;1789084;79;21002;-66
2022/02/04 15:38:14;;;;;;;20.97;9.95;;;;;;;16.39;47.06;99701.69;1768597;80;21116;-66
2022/02/04 15:40:44;;;;;;;20.77;9.53;;;;;;;16.29;47.22;99713.64;1771599;80;22433;-65
2022/02/04 15:43:10;;;;;;;17.50;9.50;;;;;;;16.18;47.36;99707.56;1764759;80;21017;-63
2022/02/04 15:50:47;;;;;;;16.25;8.55;;;;;;;15.90;47.88;99759.99;1768347;80;21450;-67
2022/02/04 16:03:42;;;;;;;15.95;9.10;;;;;;;15.38;48.61;99756.89;1778116;79;21089;-66
2022/02/04 16:05:59;;;;;;;17.07;9.43;;;;;;;15.24;48.64;99757.34;1777524;80;21750;-68
2022/02/04 16:08:25;;;;;;;20.02;8.88;;;;;;;15.13;48.61;99757.37;1788634;79;22405;-67
2022/02/04 16:11:01;;;;;;;13.88;8.48;;;;;;;15.01;48.60;99754.95;1770627;80;21500;-68
2022/02/04 16:13:41;;;;;;;14.18;8.20;;;;;;;14.90;48.65;99755.49;1787842;80;21493;-65
2022/02/04 16:17:37;;;;;;;15.55;8.95;;;;;;;14.75;48.66;99752.39;1889209;76;28097;-66
2022/02/04 16:20:17;;;;;;;18.45;8.68;;;;;;;14.61;48.66;99765.36;1859764;77;20986;-67
2022/02/04 16:22:58;;;;;;;17.10;9.05;;;;;;;14.50;48.71;99764.00;1859746;77;21120;-65
2022/02/04 16:25:30;;;;;;;17.02;8.55;;;;;;;14.38;48.72;99770.89;1854121;75;21042;-67
2022/02/04 16:30:11;;;;;;;15.58;8.98;;;;;;;14.19;48.79;99771.02;1860339;77;21015;-68
2022/02/04 16:32:38;;;;;;;13.68;8.73;;;;;;;14.09;48.83;99774.53;1839250;77;21009;-65
2022/02/04 16:35:06;;;;;;;15.78;8.58;;;;;;;14.01;48.84;99772.81;1839941;77;21931;-67
2022/02/04 16:37:36;;;;;;;15.95;9.10;;;;;;;13.92;48.87;99768.59;1833714;77;20982;-66
2022/02/04 16:40:11;;;;;;;12.60;8.53;;;;;;;13.83;48.90;99770.57;1843095;77;21521;-66
2022/02/04 16:42:35;;;;;;;15.38;8.88;;;;;;;13.74;48.93;99775.18;1851972;75;21052;-66
2022/02/04 16:45:02;;;;;;;12.40;8.35;;;;;;;13.65;48.97;99773.63;1852986;77;21064;-65
2022/02/04 16:47:29;;;;;;;13.95;8.15;;;;;;;13.57;49.00;99776.41;1859958;77;21135;-66
2022/02/04 16:49:57;;;;;;;13.43;8.75;;;;;;;13.47;49.04;99768.70;1854512;77;21052;-64
2022/02/04 16:52:23;;;;;;;16.85;8.58;;;;;;;13.41;49.07;99770.78;1850213;77;21007;-67
2022/02/04 16:54:49;;;;;;;11.48;8.65;;;;;;;13.34;49.11;99775.20;1859794;77;20987;-65
2022/02/04 16:57:16;;;;;;;10.95;7.60;;;;;;;13.26;49.13;99774.76;1833899;77;21025;-69
2022/02/04 16:59:42;;;;;;;13.32;8.43;;;;;;;13.18;49.17;99773.02;1859246;75;21133;-66
2022/02/04 17:02:09;;;;;;;17.48;9.20;;;;;;;13.11;49.21;99780.08;1843824;77;21640;-65
2022/02/04 17:04:35;;;;;;;19.35;9.93;;;;;;;13.04;49.25;99773.00;1859979;77;21505;-65
2022/02/04 17:07:15;;;;;;;11.93;9.15;;;;;;;12.97;49.28;99777.73;1854181;77;21171;-65
2022/02/04 17:09:39;;;;;;;29.27;9.73;;;;;;;12.91;49.30;99774.98;1826646;77;21005;-68
2022/02/04 17:12:06;;;;;;;14.63;9.00;;;;;;;12.85;49.32;99779.72;1829365;77;21125;-66
2022/02/04 17:14:34;;;;;;;18.77;10.72;;;;;;;12.78;49.35;99780.42;1859852;77;21177;-65
2022/02/04 17:17:03;;;;;;;16.65;10.38;;;;;;;12.72;49.36;99778.48;1847481;76;21044;-68
2022/02/04 17:19:35;;;;;;;15.88;10.70;;;;;;;12.67;49.38;99780.88;1840924;78;21057;-65
2022/02/04 17:22:02;;;;;;;18.52;11.25;;;;;;;12.62;49.43;99786.43;1844407;77;21482;-66
2022/02/04 17:24:26;;;;;;;16.62;10.45;;;;;;;12.55;49.41;99781.80;1848228;77;21133;-68
2022/02/04 17:26:53;;;;;;;14.50;10.58;;;;;;;12.50;49.46;99782.86;1846341;77;21006;-65
2022/02/04 17:29:19;;;;;;;17.30;10.88;;;;;;;12.47;49.46;99782.38;1846421;77;20989;-66
2022/02/04 17:31:46;;;;;;;15.28;10.53;;;;;;;12.42;49.47;99780.75;1839967;76;21450;-65
2022/02/04 17:34:13;;;;;;;17.82;11.35;;;;;;;12.36;49.49;99785.80;1829917;76;21525;-67
2022/02/04 17:36:39;;;;;;;21.60;11.63;;;;;;;12.33;49.48;99784.00;1830985;77;21913;-66
2022/02/04 17:39:16;;;;;;;19.37;12.07;;;;;;;12.28;49.50;99783.19;1842316;77;21497;-66
2022/02/04 17:41:40;;;;;;;15.58;11.00;;;;;;;12.24;49.53;99783.73;1841178;77;21065;-67
2022/02/04 17:44:06;;;;;;;18.20;11.18;;;;;;;12.18;49.51;99783.42;1840995;77;21502;-65
2022/02/04 17:46:32;;;;;;;17.45;11.68;;;;;;;12.14;49.53;99783.45;1837812;76;21493;-65